sensor_id;sensor_type;location;lat;lon;timestamp;pressure;altitude;pressure_sealevel;temperature;humidity
67840;BME280;54636;51.684;5.142;2022-08-20T00:01:26;101605.94;;;19.06;100.00
67840;BME280;54636;51.684;5.142;2022-08-20T00:03:51;101585.53;;;18.96;100.00
67840;BME280;54636;51.684;5.142;2022-08-20T00:06:21;101573.41;;;18.86;100.00
67840;BME280;54636;51.684;5.142;2022-08-20T00:08:47;101601.69;;;19.05;100.00
67840;BME280;54636;51.684;5.142;2022-08-20T00:11:16;101584.88;;;18.90;100.00
67840;BME280;54636;51.684;5.142;2022-08-20T00:13:45;101602.22;;;19.04;100.00
67840;BME280;54636;51.684;5.142;2022-08-20T00:16:12;101586.13;;;18.89;100.00
67840;BME280;54636;51.684;5.142;2022-08-20T00:18:39;101597.66;;;18.88;100.00
67840;BME280;54636;51.684;5.142;2022-08-20T00:21:09;101594.31;;;18.95;100.00
67840;BME280;54636;51.684;5.142;2022-08-20T00:23:35;101602.88;;;18.91;100.00
67840;BME280;54636;51.684;5.142;2022-08-20T00:26:01;101597.97;;;18.84;100.00
67840;BME280;54636;51.684;5.142;2022-08-20T00:28:26;101612.69;;;18.87;100.00
67840;BME280;54636;51.684;5.142;2022-08-20T00:30:52;101597.00;;;18.82;100.00
67840;BME280;54636;51.684;5.142;2022-08-20T00:33:19;101605.41;;;18.89;100.00
67840;BME280;54636;51.684;5.142;2022-08-20T00:35:49;101596.16;;;18.87;100.00
67840;BME280;54636;51.684;5.142;2022-08-20T00:38:16;101600.13;;;18.91;100.00
67840;BME280;54636;51.684;5.142;2022-08-20T00:40:53;101605.31;;;18.95;100.00
67840;BME280;54636;51.684;5.142;2022-08-20T00:45:53;101591.84;;;18.91;100.00
67840;BME280;54636;51.684;5.142;2022-08-20T00:48:29;101599.53;;;18.98;100.00
67840;BME280;54636;51.684;5.142;2022-08-20T00:51:02;101593.81;;;18.96;100.00
67840;BME280;54636;51.684;5.142;2022-08-20T00:53:29;101605.72;;;19.04;100.00
67840;BME280;54636;51.684;5.142;2022-08-20T00:55:55;101576.91;;;18.87;100.00
67840;BME280;54636;51.684;5.142;2022-08-20T00:58:21;101591.03;;;18.96;100.00
67840;BME280;54636;51.684;5.142;2022-08-20T01:00:47;101586.06;;;18.95;100.00
67840;BME280;54636;51.684;5.142;2022-08-20T01:03:15;101602.72;;;19.02;100.00
67840;BME280;54636;51.684;5.142;2022-08-20T01:05:44;101587.91;;;18.87;100.00
67840;BME280;54636;51.684;5.142;2022-08-20T01:08:11;101595.13;;;18.90;100.00
67840;BME280;54636;51.684;5.142;2022-08-20T01:10:39;101580.84;;;18.72;100.00
67840;BME280;54636;51.684;5.142;2022-08-20T01:13:07;101600.13;;;18.72;100.00
67840;BME280;54636;51.684;5.142;2022-08-20T01:15:38;101600.94;;;18.67;100.00
67840;BME280;54636;51.684;5.142;2022-08-20T01:18:08;101610.69;;;18.68;100.00
67840;BME280;54636;51.684;5.142;2022-08-20T01:20:42;101608.44;;;18.67;100.00
67840;BME280;54636;51.684;5.142;2022-08-20T01:29:04;101592.66;;;18.43;100.00
67840;BME280;54636;51.684;5.142;2022-08-20T01:31:32;101586.47;;;18.37;100.00
67840;BME280;54636;51.684;5.142;2022-08-20T01:34:00;101598.91;;;18.43;100.00
67840;BME280;54636;51.684;5.142;2022-08-20T01:36:39;101600.91;;;18.43;100.00
67840;BME280;54636;51.684;5.142;2022-08-20T01:39:07;101582.06;;;18.28;100.00
67840;BME280;54636;51.684;5.142;2022-08-20T01:42:12;101604.22;;;18.36;100.00
67840;BME280;54636;51.684;5.142;2022-08-20T01:44:43;101611.28;;;18.31;100.00
67840;BME280;54636;51.684;5.142;2022-08-20T01:49:40;101600.09;;;18.24;100.00
67840;BME280;54636;51.684;5.142;2022-08-20T01:52:10;101605.56;;;18.29;100.00
67840;BME280;54636;51.684;5.142;2022-08-20T01:54:37;101607.03;;;18.30;100.00
67840;BME280;54636;51.684;5.142;2022-08-20T01:57:05;101604.84;;;18.23;100.00
67840;BME280;54636;51.684;5.142;2022-08-20T01:59:34;101604.34;;;18.25;100.00
67840;BME280;54636;51.684;5.142;2022-08-20T02:02:06;101619.00;;;18.33;100.00
67840;BME280;54636;51.684;5.142;2022-08-20T02:04:39;101556.91;;;17.94;100.00
67840;BME280;54636;51.684;5.142;2022-08-20T02:07:11;101550.69;;;17.94;100.00
67840;BME280;54636;51.684;5.142;2022-08-20T02:09:40;101537.22;;;17.90;100.00
67840;BME280;54636;51.684;5.142;2022-08-20T02:12:16;101605.56;;;18.29;100.00
67840;BME280;54636;51.684;5.142;2022-08-20T02:14:45;101570.09;;;18.01;100.00
67840;BME280;54636;51.684;5.142;2022-08-20T02:17:15;101595.19;;;18.17;100.00
67840;BME280;54636;51.684;5.142;2022-08-20T02:19:48;101569.59;;;18.03;100.00
67840;BME280;54636;51.684;5.142;2022-08-20T02:22:32;101561.91;;;17.96;100.00
67840;BME280;54636;51.684;5.142;2022-08-20T02:25:07;101561.38;;;17.97;100.00
67840;BME280;54636;51.684;5.142;2022-08-20T02:27:34;101557.88;;;17.97;100.00
67840;BME280;54636;51.684;5.142;2022-08-20T02:30:05;101561.38;;;17.97;100.00
67840;BME280;54636;51.684;5.142;2022-08-20T02:32:41;101564.38;;;17.99;100.00
67840;BME280;54636;51.684;5.142;2022-08-20T02:35:08;101550.69;;;17.94;100.00
67840;BME280;54636;51.684;5.142;2022-08-20T02:37:37;101595.88;;;18.23;100.00
67840;BME280;54636;51.684;5.142;2022-08-20T02:40:15;101562.38;;;18.00;100.00
67840;BME280;54636;51.684;5.142;2022-08-20T02:42:44;101596.59;;;18.23;100.00
67840;BME280;54636;51.684;5.142;2022-08-20T02:45:15;101556.91;;;17.94;100.00
67840;BME280;54636;51.684;5.142;2022-08-20T02:47:50;101558.63;;;17.97;100.00
67840;BME280;54636;51.684;5.142;2022-08-20T02:50:22;101558.63;;;17.97;100.00
67840;BME280;54636;51.684;5.142;2022-08-20T02:52:54;101579.22;;;18.15;100.00
67840;BME280;54636;51.684;5.142;2022-08-20T02:55:24;101596.59;;;18.23;100.00
67840;BME280;54636;51.684;5.142;2022-08-20T02:57:57;101561.38;;;17.97;100.00
67840;BME280;54636;51.684;5.142;2022-08-20T03:00:42;101558.16;;;17.93;100.00
67840;BME280;54636;51.684;5.142;2022-08-20T03:03:15;101560.47;;;17.89;100.00
67840;BME280;54636;51.684;5.142;2022-08-20T03:06:10;101555.47;;;17.88;100.00
67840;BME280;54636;51.684;5.142;2022-08-20T03:08:55;101609.09;;;18.24;100.00
67840;BME280;54636;51.684;5.142;2022-08-20T03:11:44;101594.50;;;18.10;100.00
67840;BME280;54636;51.684;5.142;2022-08-20T03:14:27;101554.97;;;17.89;100.00
67840;BME280;54636;51.684;5.142;2022-08-20T03:17:13;101551.50;;;17.83;100.00
67840;BME280;54636;51.684;5.142;2022-08-20T03:19:42;101569.59;;;18.03;100.00
67840;BME280;54636;51.684;5.142;2022-08-20T03:22:13;101548.72;;;17.89;100.00
67840;BME280;54636;51.684;5.142;2022-08-20T03:24:50;101559.94;;;17.91;100.00
67840;BME280;54636;51.684;5.142;2022-08-20T03:27:29;101626.97;;;18.36;100.00
67840;BME280;54636;51.684;5.142;2022-08-20T03:33:16;101563.50;;;17.86;100.00
67840;BME280;54636;51.684;5.142;2022-08-20T03:35:49;101596.31;;;18.02;100.00
67840;BME280;54636;51.684;5.142;2022-08-20T03:38:23;101555.63;;;17.71;100.00
67840;BME280;54636;51.684;5.142;2022-08-20T03:41:03;101630.13;;;18.22;100.00
67840;BME280;54636;51.684;5.142;2022-08-20T03:43:37;101557.38;;;17.68;100.00
67840;BME280;54636;51.684;5.142;2022-08-20T03:46:37;101633.78;;;18.05;100.00
67840;BME280;54636;51.684;5.142;2022-08-20T03:49:10;101608.47;;;17.83;100.00
67840;BME280;54636;51.684;5.142;2022-08-20T03:51:47;101616.03;;;17.76;100.00
67840;BME280;54636;51.684;5.142;2022-08-20T03:54:25;101613.50;;;17.78;100.00
67840;BME280;54636;51.684;5.142;2022-08-20T03:57:01;101579.19;;;17.55;100.00
67840;BME280;54636;51.684;5.142;2022-08-20T04:00:05;101617.97;;;17.82;100.00
67840;BME280;54636;51.684;5.142;2022-08-20T04:05:30;101577.13;;;17.67;100.00
67840;BME280;54636;51.684;5.142;2022-08-20T04:07:59;101578.63;;;17.62;100.00
67840;BME280;54636;51.684;5.142;2022-08-20T04:10:57;101572.50;;;17.51;100.00
67840;BME280;54636;51.684;5.142;2022-08-20T04:13:34;101594.88;;;17.66;100.00
67840;BME280;54636;51.684;5.142;2022-08-20T04:16:02;101613.78;;;17.75;100.00
67840;BME280;54636;51.684;5.142;2022-08-20T04:18:36;101648.56;;;18.02;100.00
67840;BME280;54636;51.684;5.142;2022-08-20T04:21:04;101581.66;;;17.59;100.00
67840;BME280;54636;51.684;5.142;2022-08-20T04:23:49;101660.75;;;18.07;100.00
67840;BME280;54636;51.684;5.142;2022-08-20T04:26:29;101604.59;;;17.67;100.00
67840;BME280;54636;51.684;5.142;2022-08-20T04:28:55;101647.84;;;17.96;100.00
67840;BME280;54636;51.684;5.142;2022-08-20T04:31:29;101599.34;;;17.69;100.00
67840;BME280;54636;51.684;5.142;2022-08-20T04:34:02;101603.34;;;17.68;100.00
67840;BME280;54636;51.684;5.142;2022-08-20T04:36:59;101626.00;;;17.80;100.00
67840;BME280;54636;51.684;5.142;2022-08-20T04:39:39;101646.41;;;17.90;100.00
67840;BME280;54636;51.684;5.142;2022-08-20T04:42:10;101635.22;;;17.82;100.00
67840;BME280;54636;51.684;5.142;2022-08-20T04:44:45;101647.94;;;17.85;100.00
67840;BME280;54636;51.684;5.142;2022-08-20T04:53:27;101671.25;;;17.73;100.00
67840;BME280;54636;51.684;5.142;2022-08-20T04:56:19;101638.25;;;17.32;100.00
67840;BME280;54636;51.684;5.142;2022-08-20T04:58:54;101641.03;;;17.26;100.00
67840;BME280;54636;51.684;5.142;2022-08-20T05:05:17;101653.31;;;17.14;100.00
67840;BME280;54636;51.684;5.142;2022-08-20T05:07:50;101617.03;;;16.86;100.00
67840;BME280;54636;51.684;5.142;2022-08-20T05:10:25;101627.00;;;16.89;100.00
67840;BME280;54636;51.684;5.142;2022-08-20T05:13:25;101634.69;;;16.90;100.00
67840;BME280;54636;51.684;5.142;2022-08-20T05:16:11;101636.25;;;16.86;100.00
67840;BME280;54636;51.684;5.142;2022-08-20T05:21:28;101632.03;;;16.79;100.00
67840;BME280;54636;51.684;5.142;2022-08-20T05:24:04;101647.16;;;16.91;100.00
67840;BME280;54636;51.684;5.142;2022-08-20T05:26:32;101682.47;;;17.28;100.00
67840;BME280;54636;51.684;5.142;2022-08-20T05:29:09;101636.75;;;17.36;100.00
67840;BME280;54636;51.684;5.142;2022-08-20T05:31:35;101642.44;;;17.44;100.00
67840;BME280;54636;51.684;5.142;2022-08-20T05:34:13;101691.19;;;17.79;100.00
67840;BME280;54636;51.684;5.142;2022-08-20T05:36:41;101667.03;;;17.61;100.00
67840;BME280;54636;51.684;5.142;2022-08-20T05:39:42;101684.00;;;17.70;100.00
67840;BME280;54636;51.684;5.142;2022-08-20T05:42:28;101723.78;;;17.99;100.00
67840;BME280;54636;51.684;5.142;2022-08-20T05:44:54;101675.53;;;17.68;100.00
67840;BME280;54636;51.684;5.142;2022-08-20T05:47:32;101729.22;;;18.10;100.00
67840;BME280;54636;51.684;5.142;2022-08-20T05:53:00;101652.72;;;17.79;100.00
67840;BME280;54636;51.684;5.142;2022-08-20T05:55:46;101718.78;;;18.33;100.00
67840;BME280;54636;51.684;5.142;2022-08-20T06:01:56;101692.50;;;18.08;100.00
67840;BME280;54636;51.684;5.142;2022-08-20T06:07:46;101700.34;;;18.23;100.00
67840;BME280;54636;51.684;5.142;2022-08-20T06:13:26;101666.22;;;18.13;100.00
67840;BME280;54636;51.684;5.142;2022-08-20T06:16:33;101725.84;;;18.53;100.00
67840;BME280;54636;51.684;5.142;2022-08-20T06:26:13;101743.44;;;18.99;100.00
67840;BME280;54636;51.684;5.142;2022-08-20T06:28:51;101701.88;;;18.78;100.00
67840;BME280;54636;51.684;5.142;2022-08-20T06:31:31;101680.06;;;18.56;100.00
67840;BME280;54636;51.684;5.142;2022-08-20T06:34:37;101740.00;;;18.93;100.00
67840;BME280;54636;51.684;5.142;2022-08-20T06:44:17;101729.06;;;18.57;100.00
67840;BME280;54636;51.684;5.142;2022-08-20T06:46:54;101681.34;;;18.25;100.00
67840;BME280;54636;51.684;5.142;2022-08-20T06:49:34;101741.97;;;18.73;100.00
67840;BME280;54636;51.684;5.142;2022-08-20T06:52:04;101707.22;;;18.70;100.00
67840;BME280;54636;51.684;5.142;2022-08-20T06:54:48;101683.13;;;19.20;100.00
67840;BME280;54636;51.684;5.142;2022-08-20T06:57:26;101747.47;;;20.29;97.33
67840;BME280;54636;51.684;5.142;2022-08-20T07:00:21;101715.22;;;19.92;96.33
67840;BME280;54636;51.684;5.142;2022-08-20T07:03:10;101733.25;;;19.93;97.08
67840;BME280;54636;51.684;5.142;2022-08-20T07:05:46;101724.94;;;20.12;95.36
67840;BME280;54636;51.684;5.142;2022-08-20T07:08:19;101687.47;;;20.03;94.05
67840;BME280;54636;51.684;5.142;2022-08-20T07:14:04;101753.88;;;20.37;94.48
67840;BME280;54636;51.684;5.142;2022-08-20T07:26:46;101774.69;;;19.88;99.27
67840;BME280;54636;51.684;5.142;2022-08-20T07:29:15;101757.19;;;19.66;96.75
67840;BME280;54636;51.684;5.142;2022-08-20T07:31:41;101755.91;;;19.67;99.13
67840;BME280;54636;51.684;5.142;2022-08-20T07:34:28;101787.50;;;19.85;98.78
67840;BME280;54636;51.684;5.142;2022-08-20T07:37:18;101793.00;;;20.04;99.76
67840;BME280;54636;51.684;5.142;2022-08-20T07:43:04;101745.19;;;19.83;96.36
67840;BME280;54636;51.684;5.142;2022-08-20T07:55:42;101797.88;;;20.49;85.60
67840;BME280;54636;51.684;5.142;2022-08-20T07:58:31;101805.19;;;20.46;87.18
67840;BME280;54636;51.684;5.142;2022-08-20T08:00:58;101744.03;;;20.10;86.13
67840;BME280;54636;51.684;5.142;2022-08-20T08:06:26;101776.78;;;20.32;84.40
67840;BME280;54636;51.684;5.142;2022-08-20T08:09:07;101801.41;;;20.62;84.77
67840;BME280;54636;51.684;5.142;2022-08-20T08:11:57;101762.72;;;20.49;87.00
67840;BME280;54636;51.684;5.142;2022-08-20T08:15:00;101822.16;;;20.95;84.92
67840;BME280;54636;51.684;5.142;2022-08-20T08:17:48;101788.78;;;20.67;85.04
67840;BME280;54636;51.684;5.142;2022-08-20T08:31:11;101782.47;;;21.25;81.27
67840;BME280;54636;51.684;5.142;2022-08-20T08:33:49;101821.53;;;21.68;79.73
67840;BME280;54636;51.684;5.142;2022-08-20T08:36:17;101783.06;;;21.57;79.94
67840;BME280;54636;51.684;5.142;2022-08-20T08:39:06;101780.19;;;21.50;77.81
67840;BME280;54636;51.684;5.142;2022-08-20T08:41:42;101786.78;;;21.60;75.30
67840;BME280;54636;51.684;5.142;2022-08-20T08:44:22;101806.09;;;21.73;77.37
67840;BME280;54636;51.684;5.142;2022-08-20T08:49:45;101761.31;;;21.75;74.02
67840;BME280;54636;51.684;5.142;2022-08-20T08:52:18;101791.16;;;22.02;75.25
67840;BME280;54636;51.684;5.142;2022-08-20T08:54:50;101791.22;;;22.10;73.43
67840;BME280;54636;51.684;5.142;2022-08-20T08:57:24;101798.94;;;22.25;71.59
67840;BME280;54636;51.684;5.142;2022-08-20T09:00:00;101796.56;;;22.08;68.75
67840;BME280;54636;51.684;5.142;2022-08-20T09:02:32;101776.66;;;22.10;67.10
67840;BME280;54636;51.684;5.142;2022-08-20T09:11:47;101810.63;;;22.73;71.08
67840;BME280;54636;51.684;5.142;2022-08-20T09:29:27;101829.84;;;23.27;62.50
67840;BME280;54636;51.684;5.142;2022-08-20T09:40:29;101772.75;;;23.32;57.97
67840;BME280;54636;51.684;5.142;2022-08-20T10:58:57;101827.38;;;25.41;43.16
67840;BME280;54636;51.684;5.142;2022-08-20T11:01:28;101814.03;;;25.39;43.43
67840;BME280;54636;51.684;5.142;2022-08-20T11:03:54;101786.25;;;25.32;43.72
67840;BME280;54636;51.684;5.142;2022-08-20T11:06:22;101793.25;;;25.40;43.14
67840;BME280;54636;51.684;5.142;2022-08-20T11:08:49;101796.50;;;25.21;44.31
67840;BME280;54636;51.684;5.142;2022-08-20T11:11:15;101780.78;;;25.01;42.51
67840;BME280;54636;51.684;5.142;2022-08-20T11:13:40;101793.91;;;25.16;42.77
67840;BME280;54636;51.684;5.142;2022-08-20T11:16:06;101804.09;;;25.21;42.94
67840;BME280;54636;51.684;5.142;2022-08-20T11:18:31;101773.00;;;24.92;43.79
67840;BME280;54636;51.684;5.142;2022-08-20T11:20:57;101820.94;;;25.31;45.22
67840;BME280;54636;51.684;5.142;2022-08-20T11:23:23;101789.81;;;25.17;43.33
67840;BME280;54636;51.684;5.142;2022-08-20T11:25:48;101793.88;;;25.23;43.07
67840;BME280;54636;51.684;5.142;2022-08-20T11:28:14;101822.31;;;25.54;42.89
67840;BME280;54636;51.684;5.142;2022-08-20T11:30:40;101785.41;;;25.06;43.96
67840;BME280;54636;51.684;5.142;2022-08-20T11:33:05;101829.84;;;25.21;41.87
67840;BME280;54636;51.684;5.142;2022-08-20T11:35:35;101823.00;;;25.15;42.84
67840;BME280;54636;51.684;5.142;2022-08-20T11:38:04;101785.59;;;25.08;44.41
67840;BME280;54636;51.684;5.142;2022-08-20T11:40:29;101832.88;;;25.56;45.00
67840;BME280;54636;51.684;5.142;2022-08-20T11:42:55;101764.22;;;25.26;42.00
67840;BME280;54636;51.684;5.142;2022-08-20T11:45:23;101806.16;;;25.68;43.83
67840;BME280;54636;51.684;5.142;2022-08-20T11:47:50;101825.16;;;25.87;41.94
67840;BME280;54636;51.684;5.142;2022-08-20T11:50:19;101798.31;;;25.74;43.09
67840;BME280;54636;51.684;5.142;2022-08-20T11:52:44;101807.63;;;25.69;43.16
67840;BME280;54636;51.684;5.142;2022-08-20T11:55:11;101768.09;;;25.31;42.39
67840;BME280;54636;51.684;5.142;2022-08-20T11:57:44;101811.22;;;25.47;42.22
67840;BME280;54636;51.684;5.142;2022-08-20T12:00:15;101799.88;;;25.52;44.20
67840;BME280;54636;51.684;5.142;2022-08-20T12:02:41;101827.28;;;25.71;44.50
67840;BME280;54636;51.684;5.142;2022-08-20T12:05:09;101775.19;;;25.56;44.00
67840;BME280;54636;51.684;5.142;2022-08-20T12:07:35;101799.38;;;25.86;43.72
67840;BME280;54636;51.684;5.142;2022-08-20T12:10:00;101802.78;;;26.02;43.36
67840;BME280;54636;51.684;5.142;2022-08-20T12:12:26;101806.25;;;26.10;43.42
67840;BME280;54636;51.684;5.142;2022-08-20T12:14:53;101799.13;;;26.00;42.52
67840;BME280;54636;51.684;5.142;2022-08-20T12:17:24;101775.72;;;25.70;43.58
67840;BME280;54636;51.684;5.142;2022-08-20T12:19:52;101785.75;;;25.66;43.30
67840;BME280;54636;51.684;5.142;2022-08-20T12:22:18;101822.56;;;26.14;44.09
67840;BME280;54636;51.684;5.142;2022-08-20T12:24:44;101795.34;;;26.05;41.95
67840;BME280;54636;51.684;5.142;2022-08-20T12:27:25;101806.00;;;25.99;44.09
67840;BME280;54636;51.684;5.142;2022-08-20T12:29:52;101801.44;;;25.86;43.14
67840;BME280;54636;51.684;5.142;2022-08-20T12:32:19;101751.50;;;25.48;42.40
67840;BME280;54636;51.684;5.142;2022-08-20T12:34:45;101762.66;;;25.40;44.32
67840;BME280;54636;51.684;5.142;2022-08-20T12:37:16;101775.41;;;25.51;43.23
67840;BME280;54636;51.684;5.142;2022-08-20T12:39:45;101828.91;;;25.82;42.76
67840;BME280;54636;51.684;5.142;2022-08-20T12:42:12;101784.50;;;25.51;43.27
67840;BME280;54636;51.684;5.142;2022-08-20T12:44:39;101819.47;;;25.77;42.53
67840;BME280;54636;51.684;5.142;2022-08-20T12:47:21;101819.16;;;25.98;43.55
67840;BME280;54636;51.684;5.142;2022-08-20T12:49:52;101785.75;;;25.98;43.43
67840;BME280;54636;51.684;5.142;2022-08-20T12:52:19;101782.13;;;26.13;41.14
67840;BME280;54636;51.684;5.142;2022-08-20T12:54:46;101755.28;;;26.25;40.75
67840;BME280;54636;51.684;5.142;2022-08-20T12:57:37;101762.81;;;26.40;41.14
67840;BME280;54636;51.684;5.142;2022-08-20T13:02:40;101766.56;;;26.35;40.51
67840;BME280;54636;51.684;5.142;2022-08-20T13:05:11;101757.91;;;26.23;42.16
67840;BME280;54636;51.684;5.142;2022-08-20T13:07:38;101814.91;;;26.72;42.17
67840;BME280;54636;51.684;5.142;2022-08-20T13:10:06;101765.31;;;26.28;43.25
67840;BME280;54636;51.684;5.142;2022-08-20T13:12:34;101772.06;;;26.17;43.64
67840;BME280;54636;51.684;5.142;2022-08-20T13:15:00;101789.50;;;26.18;43.15
67840;BME280;54636;51.684;5.142;2022-08-20T13:17:26;101788.69;;;26.00;44.27
67840;BME280;54636;51.684;5.142;2022-08-20T13:19:55;101761.47;;;25.58;44.98
67840;BME280;54636;51.684;5.142;2022-08-20T13:22:20;101781.06;;;25.76;45.26
67840;BME280;54636;51.684;5.142;2022-08-20T13:24:46;101808.53;;;26.04;45.54
67840;BME280;54636;51.684;5.142;2022-08-20T13:27:15;101774.31;;;25.86;45.26
67840;BME280;54636;51.684;5.142;2022-08-20T13:29:51;101785.81;;;26.15;46.33
67840;BME280;54636;51.684;5.142;2022-08-20T13:32:17;101763.94;;;25.87;45.53
67840;BME280;54636;51.684;5.142;2022-08-20T13:34:43;101761.44;;;25.66;45.05
67840;BME280;54636;51.684;5.142;2022-08-20T13:37:15;101771.47;;;25.61;46.74
67840;BME280;54636;51.684;5.142;2022-08-20T13:39:42;101772.34;;;25.79;48.31
67840;BME280;54636;51.684;5.142;2022-08-20T13:42:08;101737.56;;;25.55;46.39
67840;BME280;54636;51.684;5.142;2022-08-20T13:44:34;101749.72;;;25.75;47.01
67840;BME280;54636;51.684;5.142;2022-08-20T13:46:59;101754.44;;;25.90;47.34
67840;BME280;54636;51.684;5.142;2022-08-20T13:49:36;101746.31;;;26.09;45.91
67840;BME280;54636;51.684;5.142;2022-08-20T13:52:02;101757.13;;;26.05;45.80
67840;BME280;54636;51.684;5.142;2022-08-20T13:54:27;101755.88;;;25.99;47.04
67840;BME280;54636;51.684;5.142;2022-08-20T13:57:03;101800.13;;;26.44;46.27
67840;BME280;54636;51.684;5.142;2022-08-20T13:59:35;101766.31;;;26.15;46.07
67840;BME280;54636;51.684;5.142;2022-08-20T14:02:01;101780.06;;;26.13;46.05
67840;BME280;54636;51.684;5.142;2022-08-20T14:04:29;101788.44;;;26.13;46.36
67840;BME280;54636;51.684;5.142;2022-08-20T14:06:57;101788.47;;;25.81;46.67
67840;BME280;54636;51.684;5.142;2022-08-20T14:09:22;101763.19;;;25.46;47.32
67840;BME280;54636;51.684;5.142;2022-08-20T14:11:50;101804.84;;;25.61;46.78
67840;BME280;54636;51.684;5.142;2022-08-20T14:14:16;101786.47;;;25.26;47.89
67840;BME280;54636;51.684;5.142;2022-08-20T14:16:41;101752.81;;;24.76;48.56
67840;BME280;54636;51.684;5.142;2022-08-20T14:19:07;101816.72;;;24.99;48.94
67840;BME280;54636;51.684;5.142;2022-08-20T14:21:32;101751.94;;;24.43;50.10
67840;BME280;54636;51.684;5.142;2022-08-20T14:23:58;101757.50;;;24.51;50.03
67840;BME280;54636;51.684;5.142;2022-08-20T14:29:55;101810.72;;;25.33;49.59
67840;BME280;54636;51.684;5.142;2022-08-20T14:32:51;101810.59;;;25.16;49.12
67840;BME280;54636;51.684;5.142;2022-08-20T14:35:21;101741.94;;;24.63;48.86
67840;BME280;54636;51.684;5.142;2022-08-20T14:41:10;101790.38;;;25.23;49.27
67840;BME280;54636;51.684;5.142;2022-08-20T14:43:37;101797.56;;;25.34;49.62
67840;BME280;54636;51.684;5.142;2022-08-20T14:46:03;101769.06;;;25.18;49.15
67840;BME280;54636;51.684;5.142;2022-08-20T14:48:29;101748.19;;;24.79;49.62
67840;BME280;54636;51.684;5.142;2022-08-20T14:50:54;101730.78;;;24.71;49.27
67840;BME280;54636;51.684;5.142;2022-08-20T14:53:20;101755.28;;;24.65;49.17
67840;BME280;54636;51.684;5.142;2022-08-20T14:55:47;101752.13;;;24.60;50.19
67840;BME280;54636;51.684;5.142;2022-08-20T14:58:16;101803.75;;;24.86;50.04
67840;BME280;54636;51.684;5.142;2022-08-20T15:00:43;101782.50;;;24.58;49.54
67840;BME280;54636;51.684;5.142;2022-08-20T15:06:51;101751.34;;;23.91;50.82
67840;BME280;54636;51.684;5.142;2022-08-20T15:09:17;101776.31;;;23.99;50.54
67840;BME280;54636;51.684;5.142;2022-08-20T15:11:42;101750.59;;;23.83;52.15
67840;BME280;54636;51.684;5.142;2022-08-20T15:14:08;101793.19;;;24.24;51.46
67840;BME280;54636;51.684;5.142;2022-08-20T15:16:36;101766.53;;;24.13;50.21
67840;BME280;54636;51.684;5.142;2022-08-20T15:19:03;101802.50;;;24.49;50.67
67840;BME280;54636;51.684;5.142;2022-08-20T15:21:29;101740.81;;;24.13;49.73
67840;BME280;54636;51.684;5.142;2022-08-20T15:23:54;101750.66;;;24.29;49.68
67840;BME280;54636;51.684;5.142;2022-08-20T15:26:20;101730.81;;;24.10;50.80
67840;BME280;54636;51.684;5.142;2022-08-20T15:28:46;101749.50;;;24.24;49.51
67840;BME280;54636;51.684;5.142;2022-08-20T15:31:13;101760.47;;;24.30;50.37
67840;BME280;54636;51.684;5.142;2022-08-20T15:33:39;101769.91;;;24.42;51.25
67840;BME280;54636;51.684;5.142;2022-08-20T15:36:28;101777.31;;;24.55;49.99
67840;BME280;54636;51.684;5.142;2022-08-20T15:38:56;101786.56;;;24.35;50.10
67840;BME280;54636;51.684;5.142;2022-08-20T15:41:22;101758.75;;;24.04;49.38
67840;BME280;54636;51.684;5.142;2022-08-20T15:43:48;101725.56;;;23.68;50.33
67840;BME280;54636;51.684;5.142;2022-08-20T15:46:16;101747.22;;;23.70;50.37
67840;BME280;54636;51.684;5.142;2022-08-20T15:48:53;101771.06;;;23.65;51.23
67840;BME280;54636;51.684;5.142;2022-08-20T15:51:45;101758.56;;;23.43;51.08
67840;BME280;54636;51.684;5.142;2022-08-20T15:54:25;101803.28;;;23.76;51.54
67840;BME280;54636;51.684;5.142;2022-08-20T16:05:27;101804.94;;;23.79;51.09
67840;BME280;54636;51.684;5.142;2022-08-20T16:08:37;101800.47;;;23.68;51.13
67840;BME280;54636;51.684;5.142;2022-08-20T16:16:47;101804.69;;;23.61;51.58
67840;BME280;54636;51.684;5.142;2022-08-20T16:19:20;101778.69;;;23.36;51.97
67840;BME280;54636;51.684;5.142;2022-08-20T16:21:47;101752.88;;;23.13;51.51
67840;BME280;54636;51.684;5.142;2022-08-20T16:24:13;101755.81;;;23.07;51.64
67840;BME280;54636;51.684;5.142;2022-08-20T16:29:23;101805.63;;;23.28;50.42
67840;BME280;54636;51.684;5.142;2022-08-20T16:31:59;101782.63;;;23.12;51.74
67840;BME280;54636;51.684;5.142;2022-08-20T16:34:29;101746.97;;;22.80;50.94
67840;BME280;54636;51.684;5.142;2022-08-20T16:37:23;101771.41;;;22.89;51.58
67840;BME280;54636;51.684;5.142;2022-08-20T16:40:35;101753.13;;;22.65;52.56
67840;BME280;54636;51.684;5.142;2022-08-20T16:43:05;101770.34;;;22.72;52.87
67840;BME280;54636;51.684;5.142;2022-08-20T16:45:37;101804.84;;;22.91;53.14
67840;BME280;54636;51.684;5.142;2022-08-20T16:48:09;101787.72;;;22.72;52.37
67840;BME280;54636;51.684;5.142;2022-08-20T16:50:57;101770.28;;;22.64;51.79
67840;BME280;54636;51.684;5.142;2022-08-20T16:53:28;101787.84;;;22.66;51.21
67840;BME280;54636;51.684;5.142;2022-08-20T16:55:54;101762.16;;;22.38;51.33
67840;BME280;54636;51.684;5.142;2022-08-20T16:58:23;101770.31;;;22.43;51.89
67840;BME280;54636;51.684;5.142;2022-08-20T17:01:10;101795.16;;;22.56;53.07
67840;BME280;54636;51.684;5.142;2022-08-20T17:03:37;101811.09;;;22.63;53.03
67840;BME280;54636;51.684;5.142;2022-08-20T17:06:14;101819.53;;;22.58;53.59
67840;BME280;54636;51.684;5.142;2022-08-20T17:08:48;101765.97;;;22.14;53.11
67840;BME280;54636;51.684;5.142;2022-08-20T17:11:21;101767.66;;;22.17;52.42